sensor_id;sensor_type;location;lat;lon;timestamp;temperature;humidity
12089;DHT22;6107;49.078;8.578;2024-03-02T00:00:21;2.80;99.90
12089;DHT22;6107;49.078;8.578;2024-03-02T00:02:49;3.20;99.90
12089;DHT22;6107;49.078;8.578;2024-03-02T00:05:16;2.90;99.90
12089;DHT22;6107;49.078;8.578;2024-03-02T00:07:44;3.00;99.90
12089;DHT22;6107;49.078;8.578;2024-03-02T00:10:12;2.90;99.90
12089;DHT22;6107;49.078;8.578;2024-03-02T00:12:40;2.90;99.90
12089;DHT22;6107;49.078;8.578;2024-03-02T00:17:55;3.20;99.90
12089;DHT22;6107;49.078;8.578;2024-03-02T00:20:22;3.10;99.90
12089;DHT22;6107;49.078;8.578;2024-03-02T00:22:49;3.20;99.90
12089;DHT22;6107;49.078;8.578;2024-03-02T00:25:16;3.50;99.90
12089;DHT22;6107;49.078;8.578;2024-03-02T00:27:41;3.70;99.90
12089;DHT22;6107;49.078;8.578;2024-03-02T00:33:11;3.50;99.90
12089;DHT22;6107;49.078;8.578;2024-03-02T00:35:37;3.40;99.90
12089;DHT22;6107;49.078;8.578;2024-03-02T00:38:06;3.50;99.90
12089;DHT22;6107;49.078;8.578;2024-03-02T00:40:32;3.20;99.90
12089;DHT22;6107;49.078;8.578;2024-03-02T00:42:58;3.10;99.90
12089;DHT22;6107;49.078;8.578;2024-03-02T00:45:25;3.10;99.90
12089;DHT22;6107;49.078;8.578;2024-03-02T00:47:51;2.60;99.90
12089;DHT22;6107;49.078;8.578;2024-03-02T00:50:17;2.50;99.90
12089;DHT22;6107;49.078;8.578;2024-03-02T00:52:43;2.30;99.90
12089;DHT22;6107;49.078;8.578;2024-03-02T00:55:09;2.10;99.90
12089;DHT22;6107;49.078;8.578;2024-03-02T00:57:34;2.20;99.90
12089;DHT22;6107;49.078;8.578;2024-03-02T01:00:01;2.20;99.90
12089;DHT22;6107;49.078;8.578;2024-03-02T01:02:28;2.40;99.90
12089;DHT22;6107;49.078;8.578;2024-03-02T01:04:54;2.70;99.90
12089;DHT22;6107;49.078;8.578;2024-03-02T01:07:20;2.80;99.90
12089;DHT22;6107;49.078;8.578;2024-03-02T01:09:45;3.00;99.90
12089;DHT22;6107;49.078;8.578;2024-03-02T01:12:11;2.80;99.90
12089;DHT22;6107;49.078;8.578;2024-03-02T01:14:37;2.50;99.90
12089;DHT22;6107;49.078;8.578;2024-03-02T01:17:02;2.50;99.90
12089;DHT22;6107;49.078;8.578;2024-03-02T01:19:30;2.40;99.90
12089;DHT22;6107;49.078;8.578;2024-03-02T01:21:55;2.70;99.90
12089;DHT22;6107;49.078;8.578;2024-03-02T01:24:21;2.40;99.90
12089;DHT22;6107;49.078;8.578;2024-03-02T01:26:46;2.30;99.90
12089;DHT22;6107;49.078;8.578;2024-03-02T01:29:12;2.60;99.90
12089;DHT22;6107;49.078;8.578;2024-03-02T01:31:38;2.40;99.90
12089;DHT22;6107;49.078;8.578;2024-03-02T01:34:07;2.60;99.90
12089;DHT22;6107;49.078;8.578;2024-03-02T01:36:33;2.70;99.90
12089;DHT22;6107;49.078;8.578;2024-03-02T01:38:58;2.90;99.90
12089;DHT22;6107;49.078;8.578;2024-03-02T01:41:24;2.80;99.90
12089;DHT22;6107;49.078;8.578;2024-03-02T01:43:50;2.50;99.90
12089;DHT22;6107;49.078;8.578;2024-03-02T01:46:15;2.70;99.90
12089;DHT22;6107;49.078;8.578;2024-03-02T01:48:41;2.80;99.90
12089;DHT22;6107;49.078;8.578;2024-03-02T01:51:07;2.90;99.90
12089;DHT22;6107;49.078;8.578;2024-03-02T01:53:33;3.00;99.90
12089;DHT22;6107;49.078;8.578;2024-03-02T01:55:59;2.50;99.90
12089;DHT22;6107;49.078;8.578;2024-03-02T01:58:24;2.70;99.90
12089;DHT22;6107;49.078;8.578;2024-03-02T02:00:50;2.50;99.90
12089;DHT22;6107;49.078;8.578;2024-03-02T02:03:16;2.50;99.90
12089;DHT22;6107;49.078;8.578;2024-03-02T02:05:45;2.80;99.90
12089;DHT22;6107;49.078;8.578;2024-03-02T02:08:11;3.00;99.90
12089;DHT22;6107;49.078;8.578;2024-03-02T02:10:37;2.50;99.90
12089;DHT22;6107;49.078;8.578;2024-03-02T02:13:02;2.50;99.90
12089;DHT22;6107;49.078;8.578;2024-03-02T02:15:31;2.70;99.90
12089;DHT22;6107;49.078;8.578;2024-03-02T02:17:58;2.20;99.90
12089;DHT22;6107;49.078;8.578;2024-03-02T02:20:24;2.30;99.90
12089;DHT22;6107;49.078;8.578;2024-03-02T02:23:04;2.70;99.90
12089;DHT22;6107;49.078;8.578;2024-03-02T02:25:35;2.90;99.90
12089;DHT22;6107;49.078;8.578;2024-03-02T02:28:01;2.90;99.90
12089;DHT22;6107;49.078;8.578;2024-03-02T02:30:29;2.30;99.90
12089;DHT22;6107;49.078;8.578;2024-03-02T02:32:55;2.20;99.90
12089;DHT22;6107;49.078;8.578;2024-03-02T02:35:21;2.60;99.90
12089;DHT22;6107;49.078;8.578;2024-03-02T02:37:48;2.80;99.90
12089;DHT22;6107;49.078;8.578;2024-03-02T02:40:14;2.50;99.90
12089;DHT22;6107;49.078;8.578;2024-03-02T02:42:40;2.00;99.90
12089;DHT22;6107;49.078;8.578;2024-03-02T02:45:07;2.30;99.90
12089;DHT22;6107;49.078;8.578;2024-03-02T02:47:32;2.50;99.90
12089;DHT22;6107;49.078;8.578;2024-03-02T02:50:04;1.90;99.90
12089;DHT22;6107;49.078;8.578;2024-03-02T02:52:35;2.00;99.90
12089;DHT22;6107;49.078;8.578;2024-03-02T02:55:05;2.30;99.90
12089;DHT22;6107;49.078;8.578;2024-03-02T02:57:35;2.60;99.90
12089;DHT22;6107;49.078;8.578;2024-03-02T03:00:04;2.00;99.90
12089;DHT22;6107;49.078;8.578;2024-03-02T03:02:31;1.80;99.90
12089;DHT22;6107;49.078;8.578;2024-03-02T03:04:56;2.00;99.90
12089;DHT22;6107;49.078;8.578;2024-03-02T03:07:23;2.30;99.90
12089;DHT22;6107;49.078;8.578;2024-03-02T03:09:48;2.30;99.90
12089;DHT22;6107;49.078;8.578;2024-03-02T03:12:14;1.80;99.90
12089;DHT22;6107;49.078;8.578;2024-03-02T03:14:43;1.60;99.90
12089;DHT22;6107;49.078;8.578;2024-03-02T03:17:08;1.60;99.90
12089;DHT22;6107;49.078;8.578;2024-03-02T03:19:34;1.60;99.90
12089;DHT22;6107;49.078;8.578;2024-03-02T03:21:59;1.90;99.90
12089;DHT22;6107;49.078;8.578;2024-03-02T03:24:25;2.20;99.90
12089;DHT22;6107;49.078;8.578;2024-03-02T03:26:51;2.10;99.90
12089;DHT22;6107;49.078;8.578;2024-03-02T03:29:16;2.10;99.90
12089;DHT22;6107;49.078;8.578;2024-03-02T03:31:42;2.20;99.90
12089;DHT22;6107;49.078;8.578;2024-03-02T03:34:07;2.30;99.90
12089;DHT22;6107;49.078;8.578;2024-03-02T03:36:33;2.40;99.90
12089;DHT22;6107;49.078;8.578;2024-03-02T03:38:58;2.50;99.90
12089;DHT22;6107;49.078;8.578;2024-03-02T03:41:24;2.30;99.90
12089;DHT22;6107;49.078;8.578;2024-03-02T03:43:50;1.90;99.90
12089;DHT22;6107;49.078;8.578;2024-03-02T03:46:15;2.00;99.90
12089;DHT22;6107;49.078;8.578;2024-03-02T03:48:41;1.70;99.90
12089;DHT22;6107;49.078;8.578;2024-03-02T03:51:07;1.50;99.90
12089;DHT22;6107;49.078;8.578;2024-03-02T03:53:33;1.80;99.90
12089;DHT22;6107;49.078;8.578;2024-03-02T03:55:58;1.90;99.90
12089;DHT22;6107;49.078;8.578;2024-03-02T03:58:24;2.00;99.90
12089;DHT22;6107;49.078;8.578;2024-03-02T04:00:49;2.00;99.90
12089;DHT22;6107;49.078;8.578;2024-03-02T04:03:15;1.50;99.90
12089;DHT22;6107;49.078;8.578;2024-03-02T04:05:41;1.40;99.90
12089;DHT22;6107;49.078;8.578;2024-03-02T04:08:07;1.70;99.90
12089;DHT22;6107;49.078;8.578;2024-03-02T04:10:33;2.00;99.90
12089;DHT22;6107;49.078;8.578;2024-03-02T04:12:59;1.50;99.90
12089;DHT22;6107;49.078;8.578;2024-03-02T04:15:25;1.80;99.90
12089;DHT22;6107;49.078;8.578;2024-03-02T04:17:50;2.30;99.90
12089;DHT22;6107;49.078;8.578;2024-03-02T04:20:16;2.00;99.90
12089;DHT22;6107;49.078;8.578;2024-03-02T04:22:42;2.00;99.90
12089;DHT22;6107;49.078;8.578;2024-03-02T04:25:08;2.20;99.90
12089;DHT22;6107;49.078;8.578;2024-03-02T04:27:35;2.20;99.90
12089;DHT22;6107;49.078;8.578;2024-03-02T04:30:00;1.80;99.90
12089;DHT22;6107;49.078;8.578;2024-03-02T04:32:26;1.80;99.90
12089;DHT22;6107;49.078;8.578;2024-03-02T04:34:52;2.00;99.90
12089;DHT22;6107;49.078;8.578;2024-03-02T04:37:18;2.30;99.90
12089;DHT22;6107;49.078;8.578;2024-03-02T04:39:43;2.50;99.90
12089;DHT22;6107;49.078;8.578;2024-03-02T04:42:09;2.10;99.90
12089;DHT22;6107;49.078;8.578;2024-03-02T04:44:35;1.90;99.90
12089;DHT22;6107;49.078;8.578;2024-03-02T04:47:00;1.70;99.90
12089;DHT22;6107;49.078;8.578;2024-03-02T04:49:26;1.70;99.90
12089;DHT22;6107;49.078;8.578;2024-03-02T04:51:51;1.80;99.90
12089;DHT22;6107;49.078;8.578;2024-03-02T04:54:17;1.70;99.90
12089;DHT22;6107;49.078;8.578;2024-03-02T04:56:43;1.90;99.90
12089;DHT22;6107;49.078;8.578;2024-03-02T04:59:10;2.00;99.90
12089;DHT22;6107;49.078;8.578;2024-03-02T05:01:36;2.30;99.90
12089;DHT22;6107;49.078;8.578;2024-03-02T05:04:02;2.50;99.90
12089;DHT22;6107;49.078;8.578;2024-03-02T05:06:27;2.00;99.90
12089;DHT22;6107;49.078;8.578;2024-03-02T05:08:53;1.50;99.90
12089;DHT22;6107;49.078;8.578;2024-03-02T05:11:19;1.60;99.90
12089;DHT22;6107;49.078;8.578;2024-03-02T05:14:03;1.90;99.90
12089;DHT22;6107;49.078;8.578;2024-03-02T05:16:29;1.70;99.90
12089;DHT22;6107;49.078;8.578;2024-03-02T05:18:54;1.60;99.90
12089;DHT22;6107;49.078;8.578;2024-03-02T05:21:20;1.60;99.90
12089;DHT22;6107;49.078;8.578;2024-03-02T05:23:45;2.10;99.90
12089;DHT22;6107;49.078;8.578;2024-03-02T05:26:11;2.20;99.90
12089;DHT22;6107;49.078;8.578;2024-03-02T05:28:39;2.30;99.90
12089;DHT22;6107;49.078;8.578;2024-03-02T05:31:05;2.00;99.90
12089;DHT22;6107;49.078;8.578;2024-03-02T05:33:30;2.10;99.90
12089;DHT22;6107;49.078;8.578;2024-03-02T05:35:58;2.20;99.90
12089;DHT22;6107;49.078;8.578;2024-03-02T05:38:24;2.30;99.90
12089;DHT22;6107;49.078;8.578;2024-03-02T05:40:49;2.50;99.90
12089;DHT22;6107;49.078;8.578;2024-03-02T05:43:15;2.20;99.90
12089;DHT22;6107;49.078;8.578;2024-03-02T05:45:41;2.00;99.90
12089;DHT22;6107;49.078;8.578;2024-03-02T05:48:07;2.00;99.90
12089;DHT22;6107;49.078;8.578;2024-03-02T05:50:33;2.10;99.90
12089;DHT22;6107;49.078;8.578;2024-03-02T05:52:59;2.30;99.90
12089;DHT22;6107;49.078;8.578;2024-03-02T05:55:25;2.50;99.90
12089;DHT22;6107;49.078;8.578;2024-03-02T05:57:50;2.30;99.90
12089;DHT22;6107;49.078;8.578;2024-03-02T06:00:31;2.30;99.90
12089;DHT22;6107;49.078;8.578;2024-03-02T06:02:57;2.20;99.90
12089;DHT22;6107;49.078;8.578;2024-03-02T06:05:23;1.60;99.90
12089;DHT22;6107;49.078;8.578;2024-03-02T06:07:49;1.50;99.90
12089;DHT22;6107;49.078;8.578;2024-03-02T06:10:14;1.80;99.90
12089;DHT22;6107;49.078;8.578;2024-03-02T06:12:40;1.20;99.90
12089;DHT22;6107;49.078;8.578;2024-03-02T06:15:06;1.20;99.90
12089;DHT22;6107;49.078;8.578;2024-03-02T06:17:32;1.10;99.90
12089;DHT22;6107;49.078;8.578;2024-03-02T06:19:58;1.30;99.90
12089;DHT22;6107;49.078;8.578;2024-03-02T06:22:23;1.40;99.90
12089;DHT22;6107;49.078;8.578;2024-03-02T06:24:51;1.30;99.90
12089;DHT22;6107;49.078;8.578;2024-03-02T06:27:16;1.20;99.90
12089;DHT22;6107;49.078;8.578;2024-03-02T06:29:42;1.50;99.90
12089;DHT22;6107;49.078;8.578;2024-03-02T06:32:08;1.60;99.90
12089;DHT22;6107;49.078;8.578;2024-03-02T06:34:33;1.20;99.90
12089;DHT22;6107;49.078;8.578;2024-03-02T06:36:59;0.90;99.90
12089;DHT22;6107;49.078;8.578;2024-03-02T06:39:25;0.90;99.90
12089;DHT22;6107;49.078;8.578;2024-03-02T06:41:51;1.20;99.90
12089;DHT22;6107;49.078;8.578;2024-03-02T06:44:17;1.20;99.90
12089;DHT22;6107;49.078;8.578;2024-03-02T06:46:43;1.30;99.90
12089;DHT22;6107;49.078;8.578;2024-03-02T06:49:08;1.50;99.90
12089;DHT22;6107;49.078;8.578;2024-03-02T06:51:36;1.80;99.90
12089;DHT22;6107;49.078;8.578;2024-03-02T06:54:01;1.40;99.90
12089;DHT22;6107;49.078;8.578;2024-03-02T06:56:27;1.70;99.90
12089;DHT22;6107;49.078;8.578;2024-03-02T06:58:53;2.00;99.90
12089;DHT22;6107;49.078;8.578;2024-03-02T07:01:18;2.40;99.90
12089;DHT22;6107;49.078;8.578;2024-03-02T07:03:45;2.40;99.90
12089;DHT22;6107;49.078;8.578;2024-03-02T07:06:11;2.30;99.90
12089;DHT22;6107;49.078;8.578;2024-03-02T07:08:37;2.30;99.90
12089;DHT22;6107;49.078;8.578;2024-03-02T07:11:02;2.90;99.90
12089;DHT22;6107;49.078;8.578;2024-03-02T07:13:28;2.90;99.90
12089;DHT22;6107;49.078;8.578;2024-03-02T07:15:54;2.80;99.90
12089;DHT22;6107;49.078;8.578;2024-03-02T07:18:31;2.80;99.90
12089;DHT22;6107;49.078;8.578;2024-03-02T07:20:59;2.80;99.90
12089;DHT22;6107;49.078;8.578;2024-03-02T07:23:26;2.60;99.90
12089;DHT22;6107;49.078;8.578;2024-03-02T07:25:56;2.60;99.90
12089;DHT22;6107;49.078;8.578;2024-03-02T07:28:22;2.70;99.90
12089;DHT22;6107;49.078;8.578;2024-03-02T07:31:00;3.00;99.90
12089;DHT22;6107;49.078;8.578;2024-03-02T07:33:26;3.20;99.90
12089;DHT22;6107;49.078;8.578;2024-03-02T07:35:54;3.20;99.90
12089;DHT22;6107;49.078;8.578;2024-03-02T07:38:20;3.20;99.90
12089;DHT22;6107;49.078;8.578;2024-03-02T07:40:45;3.20;99.90
12089;DHT22;6107;49.078;8.578;2024-03-02T07:43:11;3.40;99.90
12089;DHT22;6107;49.078;8.578;2024-03-02T07:45:37;3.50;99.90
12089;DHT22;6107;49.078;8.578;2024-03-02T07:48:03;3.70;99.90
12089;DHT22;6107;49.078;8.578;2024-03-02T07:50:31;3.80;99.90
12089;DHT22;6107;49.078;8.578;2024-03-02T07:52:57;4.10;99.90
12089;DHT22;6107;49.078;8.578;2024-03-02T07:55:22;4.20;99.90
12089;DHT22;6107;49.078;8.578;2024-03-02T07:57:50;4.10;99.90
12089;DHT22;6107;49.078;8.578;2024-03-02T08:00:16;4.10;99.90
12089;DHT22;6107;49.078;8.578;2024-03-02T08:02:41;4.30;99.90
12089;DHT22;6107;49.078;8.578;2024-03-02T08:05:10;4.40;99.90
12089;DHT22;6107;49.078;8.578;2024-03-02T08:07:35;4.50;99.90
12089;DHT22;6107;49.078;8.578;2024-03-02T08:10:01;4.70;99.90
12089;DHT22;6107;49.078;8.578;2024-03-02T08:12:27;4.90;99.90
12089;DHT22;6107;49.078;8.578;2024-03-02T08:17:18;5.30;99.90
12089;DHT22;6107;49.078;8.578;2024-03-02T08:22:10;6.10;99.90
12089;DHT22;6107;49.078;8.578;2024-03-02T08:24:36;6.40;99.90
12089;DHT22;6107;49.078;8.578;2024-03-02T08:27:02;7.10;99.90
12089;DHT22;6107;49.078;8.578;2024-03-02T08:29:28;8.10;99.90
12089;DHT22;6107;49.078;8.578;2024-03-02T08:31:54;7.60;99.90
12089;DHT22;6107;49.078;8.578;2024-03-02T08:34:19;7.50;99.90
12089;DHT22;6107;49.078;8.578;2024-03-02T08:36:46;7.50;99.90
12089;DHT22;6107;49.078;8.578;2024-03-02T08:39:12;7.60;99.90
12089;DHT22;6107;49.078;8.578;2024-03-02T08:41:47;7.70;99.90
12089;DHT22;6107;49.078;8.578;2024-03-02T08:44:13;7.80;99.90
12089;DHT22;6107;49.078;8.578;2024-03-02T08:46:40;8.00;99.90
12089;DHT22;6107;49.078;8.578;2024-03-02T08:49:06;8.30;99.90
12089;DHT22;6107;49.078;8.578;2024-03-02T08:51:32;8.40;99.90
12089;DHT22;6107;49.078;8.578;2024-03-02T08:53:58;8.60;99.90
12089;DHT22;6107;49.078;8.578;2024-03-02T08:56:24;8.80;99.90
12089;DHT22;6107;49.078;8.578;2024-03-02T08:58:51;8.90;99.90
12089;DHT22;6107;49.078;8.578;2024-03-02T09:01:17;9.10;99.90
12089;DHT22;6107;49.078;8.578;2024-03-02T09:03:43;9.20;99.90
12089;DHT22;6107;49.078;8.578;2024-03-02T09:06:13;9.40;99.90
12089;DHT22;6107;49.078;8.578;2024-03-02T09:08:39;9.70;99.90
12089;DHT22;6107;49.078;8.578;2024-03-02T09:11:05;9.70;99.90
12089;DHT22;6107;49.078;8.578;2024-03-02T09:13:32;9.90;99.90
12089;DHT22;6107;49.078;8.578;2024-03-02T09:15:58;10.10;99.90
12089;DHT22;6107;49.078;8.578;2024-03-02T09:18:24;10.40;99.90
12089;DHT22;6107;49.078;8.578;2024-03-02T09:20:49;10.70;99.90
12089;DHT22;6107;49.078;8.578;2024-03-02T09:23:15;10.90;99.90
12089;DHT22;6107;49.078;8.578;2024-03-02T09:25:41;11.10;99.90
12089;DHT22;6107;49.078;8.578;2024-03-02T09:28:06;11.40;99.90
12089;DHT22;6107;49.078;8.578;2024-03-02T09:30:33;11.70;99.90
12089;DHT22;6107;49.078;8.578;2024-03-02T09:32:58;11.80;99.90
12089;DHT22;6107;49.078;8.578;2024-03-02T09:35:24;11.80;99.90
12089;DHT22;6107;49.078;8.578;2024-03-02T09:37:50;12.00;99.90
12089;DHT22;6107;49.078;8.578;2024-03-02T09:40:15;12.20;99.90
12089;DHT22;6107;49.078;8.578;2024-03-02T09:42:42;12.50;99.90
12089;DHT22;6107;49.078;8.578;2024-03-02T09:45:09;12.60;99.90
12089;DHT22;6107;49.078;8.578;2024-03-02T09:47:34;12.80;99.90
12089;DHT22;6107;49.078;8.578;2024-03-02T09:50:00;13.00;99.90
12089;DHT22;6107;49.078;8.578;2024-03-02T09:52:26;13.10;99.90
12089;DHT22;6107;49.078;8.578;2024-03-02T09:54:52;13.20;99.90
12089;DHT22;6107;49.078;8.578;2024-03-02T09:57:18;13.40;99.90
12089;DHT22;6107;49.078;8.578;2024-03-02T09:59:44;13.40;99.90
12089;DHT22;6107;49.078;8.578;2024-03-02T10:02:11;13.50;99.90
12089;DHT22;6107;49.078;8.578;2024-03-02T10:04:36;13.90;99.90
12089;DHT22;6107;49.078;8.578;2024-03-02T10:07:18;14.10;99.90
12089;DHT22;6107;49.078;8.578;2024-03-02T10:09:45;14.40;99.90
12089;DHT22;6107;49.078;8.578;2024-03-02T10:12:13;14.70;99.90
12089;DHT22;6107;49.078;8.578;2024-03-02T10:14:39;15.00;99.90
12089;DHT22;6107;49.078;8.578;2024-03-02T10:17:06;14.80;99.90
12089;DHT22;6107;49.078;8.578;2024-03-02T10:19:33;14.90;99.90
12089;DHT22;6107;49.078;8.578;2024-03-02T10:22:01;15.00;99.90
12089;DHT22;6107;49.078;8.578;2024-03-02T10:24:34;15.30;99.90
12089;DHT22;6107;49.078;8.578;2024-03-02T10:27:00;14.80;99.90
12089;DHT22;6107;49.078;8.578;2024-03-02T10:31:54;15.80;99.90
12089;DHT22;6107;49.078;8.578;2024-03-02T10:34:21;15.90;99.90
12089;DHT22;6107;49.078;8.578;2024-03-02T10:36:47;16.00;99.90
12089;DHT22;6107;49.078;8.578;2024-03-02T10:39:15;16.10;99.50
12089;DHT22;6107;49.078;8.578;2024-03-02T10:41:41;16.20;99.90
12089;DHT22;6107;49.078;8.578;2024-03-02T10:44:08;16.30;98.90
12089;DHT22;6107;49.078;8.578;2024-03-02T10:46:38;15.90;99.00
12089;DHT22;6107;49.078;8.578;2024-03-02T10:49:05;15.70;98.60
12089;DHT22;6107;49.078;8.578;2024-03-02T10:51:34;16.00;99.20
12089;DHT22;6107;49.078;8.578;2024-03-02T11:01:48;16.80;95.90
12089;DHT22;6107;49.078;8.578;2024-03-02T11:04:17;17.40;99.90
12089;DHT22;6107;49.078;8.578;2024-03-02T11:06:51;17.40;99.90
12089;DHT22;6107;49.078;8.578;2024-03-02T11:09:22;17.30;99.90
12089;DHT22;6107;49.078;8.578;2024-03-02T11:12:09;17.60;93.50
12089;DHT22;6107;49.078;8.578;2024-03-02T11:14:41;17.60;93.70
12089;DHT22;6107;49.078;8.578;2024-03-02T11:17:09;17.80;93.40
12089;DHT22;6107;49.078;8.578;2024-03-02T11:19:37;17.60;92.70
12089;DHT22;6107;49.078;8.578;2024-03-02T11:22:03;17.40;91.40
12089;DHT22;6107;49.078;8.578;2024-03-02T11:24:31;17.40;92.50
12089;DHT22;6107;49.078;8.578;2024-03-02T11:27:06;17.80;93.00
12089;DHT22;6107;49.078;8.578;2024-03-02T11:32:03;17.50;86.60
12089;DHT22;6107;49.078;8.578;2024-03-02T11:41:59;17.40;90.00
12089;DHT22;6107;49.078;8.578;2024-03-02T11:47:02;18.70;99.50
12089;DHT22;6107;49.078;8.578;2024-03-02T11:49:44;18.40;97.50
12089;DHT22;6107;49.078;8.578;2024-03-02T11:52:14;17.30;90.90
12089;DHT22;6107;49.078;8.578;2024-03-02T11:54:42;18.50;95.30
12089;DHT22;6107;49.078;8.578;2024-03-02T11:57:21;18.40;95.60
12089;DHT22;6107;49.078;8.578;2024-03-02T11:59:50;18.20;92.80
12089;DHT22;6107;49.078;8.578;2024-03-02T12:02:17;18.20;94.00
12089;DHT22;6107;49.078;8.578;2024-03-02T12:09:39;19.30;99.90
12089;DHT22;6107;49.078;8.578;2024-03-02T12:12:09;19.30;99.90
12089;DHT22;6107;49.078;8.578;2024-03-02T12:14:38;18.90;99.90
12089;DHT22;6107;49.078;8.578;2024-03-02T12:17:05;18.80;98.50
12089;DHT22;6107;49.078;8.578;2024-03-02T14:37:58;18.80;96.30
12089;DHT22;6107;49.078;8.578;2024-03-02T14:40:23;18.60;96.40
12089;DHT22;6107;49.078;8.578;2024-03-02T14:42:52;18.70;97.50
12089;DHT22;6107;49.078;8.578;2024-03-02T14:45:18;18.80;95.60
12089;DHT22;6107;49.078;8.578;2024-03-02T14:47:43;18.50;96.30
12089;DHT22;6107;49.078;8.578;2024-03-02T14:50:09;18.50;96.50
12089;DHT22;6107;49.078;8.578;2024-03-02T14:52:35;18.50;97.30
12089;DHT22;6107;49.078;8.578;2024-03-02T14:55:01;18.30;97.60
12089;DHT22;6107;49.078;8.578;2024-03-02T14:57:29;18.00;97.00
12089;DHT22;6107;49.078;8.578;2024-03-02T14:59:55;17.90;97.80
12089;DHT22;6107;49.078;8.578;2024-03-02T15:02:21;17.80;97.20
12089;DHT22;6107;49.078;8.578;2024-03-02T15:04:47;17.60;98.30
12089;DHT22;6107;49.078;8.578;2024-03-02T15:07:13;17.60;97.90
12089;DHT22;6107;49.078;8.578;2024-03-02T15:09:39;17.40;97.70
12089;DHT22;6107;49.078;8.578;2024-03-02T15:12:06;17.20;96.40
12089;DHT22;6107;49.078;8.578;2024-03-02T15:14:32;17.30;97.50
12089;DHT22;6107;49.078;8.578;2024-03-02T15:16:58;17.10;96.40
12089;DHT22;6107;49.078;8.578;2024-03-02T15:19:23;17.00;96.40
12089;DHT22;6107;49.078;8.578;2024-03-02T15:21:49;16.90;94.80
12089;DHT22;6107;49.078;8.578;2024-03-02T15:24:15;16.80;94.90
12089;DHT22;6107;49.078;8.578;2024-03-02T15:26:40;16.90;95.70
12089;DHT22;6107;49.078;8.578;2024-03-02T15:29:06;17.00;95.50
12089;DHT22;6107;49.078;8.578;2024-03-02T15:31:31;16.20;94.30
12089;DHT22;6107;49.078;8.578;2024-03-02T15:33:57;15.20;98.30
12089;DHT22;6107;49.078;8.578;2024-03-02T15:36:24;14.50;99.90
12089;DHT22;6107;49.078;8.578;2024-03-02T15:38:50;14.20;99.90
12089;DHT22;6107;49.078;8.578;2024-03-02T15:41:15;14.00;99.90
12089;DHT22;6107;49.078;8.578;2024-03-02T15:43:41;13.90;99.90
12089;DHT22;6107;49.078;8.578;2024-03-02T15:46:08;13.90;99.90
12089;DHT22;6107;49.078;8.578;2024-03-02T15:48:34;13.90;99.90
12089;DHT22;6107;49.078;8.578;2024-03-02T15:50:59;13.90;99.90
12089;DHT22;6107;49.078;8.578;2024-03-02T15:53:25;13.60;99.90
12089;DHT22;6107;49.078;8.578;2024-03-02T15:55:51;13.60;99.90
12089;DHT22;6107;49.078;8.578;2024-03-02T15:58:17;13.60;99.90
12089;DHT22;6107;49.078;8.578;2024-03-02T16:00:43;13.50;99.90
12089;DHT22;6107;49.078;8.578;2024-03-02T16:03:09;13.50;99.90
12089;DHT22;6107;49.078;8.578;2024-03-02T16:05:34;13.20;99.90
12089;DHT22;6107;49.078;8.578;2024-03-02T16:08:00;13.30;99.90
12089;DHT22;6107;49.078;8.578;2024-03-02T16:10:26;13.30;99.90
12089;DHT22;6107;49.078;8.578;2024-03-02T16:12:52;13.30;99.90
12089;DHT22;6107;49.078;8.578;2024-03-02T16:15:18;13.40;99.90
12089;DHT22;6107;49.078;8.578;2024-03-02T16:17:44;13.40;99.90
12089;DHT22;6107;49.078;8.578;2024-03-02T16:20:10;13.20;99.90
12089;DHT22;6107;49.078;8.578;2024-03-02T16:22:36;13.10;99.90
12089;DHT22;6107;49.078;8.578;2024-03-02T16:25:02;13.10;99.90
12089;DHT22;6107;49.078;8.578;2024-03-02T16:27:28;13.20;99.90
12089;DHT22;6107;49.078;8.578;2024-03-02T16:29:54;13.30;99.90
12089;DHT22;6107;49.078;8.578;2024-03-02T16:32:24;13.10;99.90
12089;DHT22;6107;49.078;8.578;2024-03-02T16:34:51;13.10;99.90
12089;DHT22;6107;49.078;8.578;2024-03-02T16:37:16;13.10;99.90
12089;DHT22;6107;49.078;8.578;2024-03-02T16:39:42;12.70;99.90
12089;DHT22;6107;49.078;8.578;2024-03-02T16:42:08;12.50;99.90
12089;DHT22;6107;49.078;8.578;2024-03-02T16:44:34;12.30;99.90
12089;DHT22;6107;49.078;8.578;2024-03-02T16:46:59;12.30;99.90
12089;DHT22;6107;49.078;8.578;2024-03-02T16:49:25;12.10;99.90
12089;DHT22;6107;49.078;8.578;2024-03-02T16:51:50;12.00;99.90
12089;DHT22;6107;49.078;8.578;2024-03-02T16:54:16;12.10;99.90
12089;DHT22;6107;49.078;8.578;2024-03-02T16:56:43;11.90;99.90
12089;DHT22;6107;49.078;8.578;2024-03-02T16:59:09;11.80;99.90
12089;DHT22;6107;49.078;8.578;2024-03-02T17:01:35;11.90;99.90
12089;DHT22;6107;49.078;8.578;2024-03-02T17:04:01;12.00;99.90
12089;DHT22;6107;49.078;8.578;2024-03-02T17:06:29;11.90;99.90
12089;DHT22;6107;49.078;8.578;2024-03-02T17:08:56;11.90;99.90
12089;DHT22;6107;49.078;8.578;2024-03-02T17:11:21;12.00;99.90
12089;DHT22;6107;49.078;8.578;2024-03-02T17:13:47;12.00;99.90
12089;DHT22;6107;49.078;8.578;2024-03-02T17:16:12;11.90;99.90
12089;DHT22;6107;49.078;8.578;2024-03-02T17:18:41;11.50;99.90
12089;DHT22;6107;49.078;8.578;2024-03-02T17:21:06;11.60;99.90
12089;DHT22;6107;49.078;8.578;2024-03-02T17:23:32;11.70;99.90
12089;DHT22;6107;49.078;8.578;2024-03-02T17:25:57;11.90;99.90
12089;DHT22;6107;49.078;8.578;2024-03-02T17:28:25;11.60;99.90
12089;DHT22;6107;49.078;8.578;2024-03-02T17:30:51;13.40;99.90
12089;DHT22;6107;49.078;8.578;2024-03-02T17:33:17;14.90;99.90
12089;DHT22;6107;49.078;8.578;2024-03-02T17:35:43;14.60;99.90
12089;DHT22;6107;49.078;8.578;2024-03-02T17:38:16;13.70;99.90
12089;DHT22;6107;49.078;8.578;2024-03-02T17:40:41;12.90;99.90
12089;DHT22;6107;49.078;8.578;2024-03-02T17:43:08;12.50;99.90
12089;DHT22;6107;49.078;8.578;2024-03-02T17:45:34;12.50;99.90
12089;DHT22;6107;49.078;8.578;2024-03-02T17:48:00;12.40;99.90
12089;DHT22;6107;49.078;8.578;2024-03-02T17:50:25;12.80;99.90
12089;DHT22;6107;49.078;8.578;2024-03-02T17:52:51;12.90;99.90
12089;DHT22;6107;49.078;8.578;2024-03-02T17:55:17;13.00;99.90
12089;DHT22;6107;49.078;8.578;2024-03-02T17:57:42;13.10;99.90
12089;DHT22;6107;49.078;8.578;2024-03-02T18:00:08;13.20;99.90
12089;DHT22;6107;49.078;8.578;2024-03-02T18:02:40;13.20;99.90
12089;DHT22;6107;49.078;8.578;2024-03-02T18:05:05;13.30;99.90
12089;DHT22;6107;49.078;8.578;2024-03-02T18:07:31;13.30;99.90
12089;DHT22;6107;49.078;8.578;2024-03-02T18:09:57;12.80;99.90
12089;DHT22;6107;49.078;8.578;2024-03-02T18:12:27;12.50;99.90
12089;DHT22;6107;49.078;8.578;2024-03-02T18:14:52;11.90;99.90
12089;DHT22;6107;49.078;8.578;2024-03-02T18:17:18;12.30;99.90
12089;DHT22;6107;49.078;8.578;2024-03-02T18:19:44;12.30;99.90
12089;DHT22;6107;49.078;8.578;2024-03-02T18:22:10;12.40;99.90
12089;DHT22;6107;49.078;8.578;2024-03-02T18:24:36;12.40;99.90
12089;DHT22;6107;49.078;8.578;2024-03-02T18:27:04;11.20;99.90
12089;DHT22;6107;49.078;8.578;2024-03-02T18:29:30;11.20;99.90
12089;DHT22;6107;49.078;8.578;2024-03-02T18:31:55;11.10;99.90
12089;DHT22;6107;49.078;8.578;2024-03-02T18:34:23;11.40;99.90
12089;DHT22;6107;49.078;8.578;2024-03-02T18:36:49;11.60;99.90
12089;DHT22;6107;49.078;8.578;2024-03-02T18:39:14;11.70;99.90
12089;DHT22;6107;49.078;8.578;2024-03-02T18:41:40;11.70;99.90
12089;DHT22;6107;49.078;8.578;2024-03-02T18:44:06;11.80;99.90
12089;DHT22;6107;49.078;8.578;2024-03-02T18:46:33;11.80;99.90